sensor_id;sensor_type;location;lat;lon;timestamp;P1;durP1;ratioP1;P2;durP2;ratioP2
22270;SDS011;11304;53.520;10.104;2023-11-21T00:00:36;13.32;;;9.18;;
22270;SDS011;11304;53.520;10.104;2023-11-21T00:03:03;12.30;;;8.90;;
22270;SDS011;11304;53.520;10.104;2023-11-21T00:05:29;13.02;;;9.50;;
22270;SDS011;11304;53.520;10.104;2023-11-21T00:07:55;11.80;;;8.48;;
22270;SDS011;11304;53.520;10.104;2023-11-21T00:10:21;12.38;;;8.90;;
22270;SDS011;11304;53.520;10.104;2023-11-21T00:12:47;12.00;;;9.05;;
22270;SDS011;11304;53.520;10.104;2023-11-21T00:15:13;12.65;;;9.25;;
22270;SDS011;11304;53.520;10.104;2023-11-21T00:17:40;12.98;;;9.45;;
22270;SDS011;11304;53.520;10.104;2023-11-21T00:20:08;12.38;;;9.38;;
22270;SDS011;11304;53.520;10.104;2023-11-21T00:22:37;13.38;;;9.50;;
22270;SDS011;11304;53.520;10.104;2023-11-21T00:25:03;14.90;;;9.00;;
22270;SDS011;11304;53.520;10.104;2023-11-21T00:27:30;15.13;;;10.05;;
22270;SDS011;11304;53.520;10.104;2023-11-21T00:29:56;14.57;;;11.13;;
22270;SDS011;11304;53.520;10.104;2023-11-21T00:32:22;15.40;;;11.38;;
22270;SDS011;11304;53.520;10.104;2023-11-21T00:34:48;18.27;;;12.80;;
22270;SDS011;11304;53.520;10.104;2023-11-21T00:37:14;17.20;;;12.98;;
22270;SDS011;11304;53.520;10.104;2023-11-21T00:39:40;16.95;;;12.35;;
22270;SDS011;11304;53.520;10.104;2023-11-21T00:42:06;16.75;;;12.35;;
22270;SDS011;11304;53.520;10.104;2023-11-21T00:44:33;20.83;;;12.98;;
22270;SDS011;11304;53.520;10.104;2023-11-21T00:46:59;20.95;;;13.25;;
22270;SDS011;11304;53.520;10.104;2023-11-21T00:49:25;21.02;;;13.73;;
22270;SDS011;11304;53.520;10.104;2023-11-21T00:51:53;21.33;;;12.75;;
22270;SDS011;11304;53.520;10.104;2023-11-21T00:54:19;20.08;;;13.38;;
22270;SDS011;11304;53.520;10.104;2023-11-21T00:56:45;22.80;;;13.38;;
22270;SDS011;11304;53.520;10.104;2023-11-21T00:59:13;23.20;;;14.00;;
22270;SDS011;11304;53.520;10.104;2023-11-21T01:01:39;19.38;;;13.48;;
22270;SDS011;11304;53.520;10.104;2023-11-21T01:04:05;19.23;;;13.65;;
22270;SDS011;11304;53.520;10.104;2023-11-21T01:06:32;20.38;;;13.63;;
22270;SDS011;11304;53.520;10.104;2023-11-21T01:08:58;20.13;;;13.35;;
22270;SDS011;11304;53.520;10.104;2023-11-21T01:11:24;24.77;;;15.25;;
22270;SDS011;11304;53.520;10.104;2023-11-21T01:13:51;24.35;;;15.27;;
22270;SDS011;11304;53.520;10.104;2023-11-21T01:16:18;18.75;;;13.93;;
22270;SDS011;11304;53.520;10.104;2023-11-21T01:18:44;21.00;;;14.13;;
22270;SDS011;11304;53.520;10.104;2023-11-21T01:21:10;20.42;;;12.98;;
22270;SDS011;11304;53.520;10.104;2023-11-21T01:23:37;19.15;;;13.10;;
22270;SDS011;11304;53.520;10.104;2023-11-21T01:26:03;25.25;;;13.88;;
22270;SDS011;11304;53.520;10.104;2023-11-21T01:28:29;21.48;;;13.18;;
22270;SDS011;11304;53.520;10.104;2023-11-21T01:30:55;21.75;;;14.00;;
22270;SDS011;11304;53.520;10.104;2023-11-21T01:33:22;19.83;;;14.00;;
22270;SDS011;11304;53.520;10.104;2023-11-21T01:35:50;16.90;;;11.82;;
22270;SDS011;11304;53.520;10.104;2023-11-21T01:38:18;19.27;;;12.63;;
22270;SDS011;11304;53.520;10.104;2023-11-21T01:40:44;20.25;;;13.43;;
22270;SDS011;11304;53.520;10.104;2023-11-21T01:43:10;18.83;;;12.57;;
22270;SDS011;11304;53.520;10.104;2023-11-21T01:45:36;16.95;;;10.63;;
22270;SDS011;11304;53.520;10.104;2023-11-21T01:48:04;16.67;;;10.82;;
22270;SDS011;11304;53.520;10.104;2023-11-21T01:50:32;15.80;;;11.02;;
22270;SDS011;11304;53.520;10.104;2023-11-21T01:52:58;14.60;;;10.63;;
22270;SDS011;11304;53.520;10.104;2023-11-21T01:55:25;14.23;;;9.98;;
22270;SDS011;11304;53.520;10.104;2023-11-21T01:57:52;15.65;;;10.13;;
22270;SDS011;11304;53.520;10.104;2023-11-21T02:00:18;13.40;;;9.57;;
22270;SDS011;11304;53.520;10.104;2023-11-21T02:02:45;13.95;;;10.05;;
22270;SDS011;11304;53.520;10.104;2023-11-21T02:05:11;14.07;;;8.90;;
22270;SDS011;11304;53.520;10.104;2023-11-21T02:07:38;14.85;;;10.23;;
22270;SDS011;11304;53.520;10.104;2023-11-21T02:10:05;13.48;;;8.52;;
22270;SDS011;11304;53.520;10.104;2023-11-21T02:12:31;11.82;;;7.95;;
22270;SDS011;11304;53.520;10.104;2023-11-21T02:14:57;10.13;;;8.02;;
22270;SDS011;11304;53.520;10.104;2023-11-21T02:17:23;11.38;;;7.80;;
22270;SDS011;11304;53.520;10.104;2023-11-21T02:19:50;13.73;;;7.97;;
22270;SDS011;11304;53.520;10.104;2023-11-21T02:22:17;11.35;;;8.13;;
22270;SDS011;11304;53.520;10.104;2023-11-21T02:24:43;11.63;;;7.30;;
22270;SDS011;11304;53.520;10.104;2023-11-21T02:27:11;11.23;;;7.63;;
22270;SDS011;11304;53.520;10.104;2023-11-21T02:29:37;17.00;;;8.10;;
22270;SDS011;11304;53.520;10.104;2023-11-21T02:32:03;11.68;;;8.13;;
22270;SDS011;11304;53.520;10.104;2023-11-21T02:34:29;10.15;;;7.80;;
22270;SDS011;11304;53.520;10.104;2023-11-21T02:36:55;11.18;;;8.07;;
22270;SDS011;11304;53.520;10.104;2023-11-21T02:39:22;10.35;;;7.78;;
22270;SDS011;11304;53.520;10.104;2023-11-21T02:41:49;10.45;;;8.07;;
22270;SDS011;11304;53.520;10.104;2023-11-21T02:44:15;9.80;;;8.07;;
22270;SDS011;11304;53.520;10.104;2023-11-21T02:46:41;11.43;;;8.30;;
22270;SDS011;11304;53.520;10.104;2023-11-21T02:49:08;11.82;;;8.30;;
22270;SDS011;11304;53.520;10.104;2023-11-21T02:51:37;11.95;;;7.40;;
22270;SDS011;11304;53.520;10.104;2023-11-21T02:54:04;9.88;;;7.75;;
22270;SDS011;11304;53.520;10.104;2023-11-21T02:56:33;13.25;;;7.47;;
22270;SDS011;11304;53.520;10.104;2023-11-21T02:58:59;10.35;;;7.55;;
22270;SDS011;11304;53.520;10.104;2023-11-21T03:01:26;11.43;;;7.22;;
22270;SDS011;11304;53.520;10.104;2023-11-21T03:03:52;11.00;;;7.68;;
22270;SDS011;11304;53.520;10.104;2023-11-21T03:06:20;10.02;;;7.00;;
22270;SDS011;11304;53.520;10.104;2023-11-21T03:08:46;11.82;;;8.00;;
22270;SDS011;11304;53.520;10.104;2023-11-21T03:11:13;12.00;;;8.13;;
22270;SDS011;11304;53.520;10.104;2023-11-21T03:13:42;11.38;;;8.10;;
22270;SDS011;11304;53.520;10.104;2023-11-21T03:16:13;10.95;;;7.97;;
22270;SDS011;11304;53.520;10.104;2023-11-21T03:18:39;10.88;;;8.00;;
22270;SDS011;11304;53.520;10.104;2023-11-21T03:21:05;10.15;;;7.65;;
22270;SDS011;11304;53.520;10.104;2023-11-21T03:23:34;12.95;;;8.77;;
22270;SDS011;11304;53.520;10.104;2023-11-21T03:26:00;12.32;;;8.32;;
22270;SDS011;11304;53.520;10.104;2023-11-21T03:28:26;11.05;;;7.60;;
22270;SDS011;11304;53.520;10.104;2023-11-21T03:30:53;14.82;;;9.18;;
22270;SDS011;11304;53.520;10.104;2023-11-21T03:33:20;12.00;;;8.63;;
22270;SDS011;11304;53.520;10.104;2023-11-21T03:35:46;12.05;;;8.68;;
22270;SDS011;11304;53.520;10.104;2023-11-21T03:38:12;15.05;;;8.77;;
22270;SDS011;11304;53.520;10.104;2023-11-21T03:40:38;12.15;;;8.73;;
22270;SDS011;11304;53.520;10.104;2023-11-21T03:43:05;11.00;;;8.45;;
22270;SDS011;11304;53.520;10.104;2023-11-21T03:45:31;11.73;;;8.55;;
22270;SDS011;11304;53.520;10.104;2023-11-21T03:47:57;10.60;;;8.70;;
22270;SDS011;11304;53.520;10.104;2023-11-21T03:50:25;10.73;;;8.32;;
22270;SDS011;11304;53.520;10.104;2023-11-21T03:52:52;11.27;;;8.68;;
22270;SDS011;11304;53.520;10.104;2023-11-21T03:55:18;10.95;;;8.30;;
22270;SDS011;11304;53.520;10.104;2023-11-21T03:57:44;11.85;;;8.20;;
22270;SDS011;11304;53.520;10.104;2023-11-21T04:00:10;14.77;;;8.60;;
22270;SDS011;11304;53.520;10.104;2023-11-21T04:02:36;11.05;;;8.25;;
22270;SDS011;11304;53.520;10.104;2023-11-21T04:05:02;10.57;;;8.18;;
22270;SDS011;11304;53.520;10.104;2023-11-21T04:07:29;11.82;;;8.65;;
22270;SDS011;11304;53.520;10.104;2023-11-21T04:09:56;11.90;;;8.70;;
22270;SDS011;11304;53.520;10.104;2023-11-21T04:12:22;11.00;;;8.23;;
22270;SDS011;11304;53.520;10.104;2023-11-21T04:14:48;12.05;;;8.70;;
22270;SDS011;11304;53.520;10.104;2023-11-21T04:17:14;12.95;;;8.50;;
22270;SDS011;11304;53.520;10.104;2023-11-21T04:19:40;12.57;;;8.63;;
22270;SDS011;11304;53.520;10.104;2023-11-21T04:22:06;16.23;;;9.15;;
22270;SDS011;11304;53.520;10.104;2023-11-21T04:24:32;12.52;;;8.30;;
22270;SDS011;11304;53.520;10.104;2023-11-21T04:26:58;11.63;;;8.40;;
22270;SDS011;11304;53.520;10.104;2023-11-21T04:29:24;11.18;;;8.65;;
22270;SDS011;11304;53.520;10.104;2023-11-21T04:31:50;12.20;;;8.63;;
22270;SDS011;11304;53.520;10.104;2023-11-21T04:34:16;13.50;;;8.43;;
22270;SDS011;11304;53.520;10.104;2023-11-21T04:36:42;11.43;;;8.52;;
22270;SDS011;11304;53.520;10.104;2023-11-21T04:39:08;12.52;;;8.65;;
22270;SDS011;11304;53.520;10.104;2023-11-21T04:41:34;12.32;;;9.20;;
22270;SDS011;11304;53.520;10.104;2023-11-21T04:44:01;13.25;;;8.60;;
22270;SDS011;11304;53.520;10.104;2023-11-21T04:46:27;11.68;;;8.60;;
22270;SDS011;11304;53.520;10.104;2023-11-21T04:48:53;12.63;;;8.93;;
22270;SDS011;11304;53.520;10.104;2023-11-21T04:51:19;11.45;;;8.05;;
22270;SDS011;11304;53.520;10.104;2023-11-21T04:53:45;11.10;;;8.70;;
22270;SDS011;11304;53.520;10.104;2023-11-21T04:56:11;13.63;;;9.40;;
22270;SDS011;11304;53.520;10.104;2023-11-21T04:58:37;11.13;;;8.73;;
22270;SDS011;11304;53.520;10.104;2023-11-21T05:01:05;11.63;;;8.45;;
22270;SDS011;11304;53.520;10.104;2023-11-21T05:03:31;11.90;;;8.95;;
22270;SDS011;11304;53.520;10.104;2023-11-21T05:05:57;11.00;;;8.98;;
22270;SDS011;11304;53.520;10.104;2023-11-21T05:08:24;12.85;;;8.90;;
22270;SDS011;11304;53.520;10.104;2023-11-21T05:10:51;15.00;;;8.57;;
22270;SDS011;11304;53.520;10.104;2023-11-21T05:13:18;11.48;;;8.27;;
22270;SDS011;11304;53.520;10.104;2023-11-21T05:15:45;11.82;;;9.25;;
22270;SDS011;11304;53.520;10.104;2023-11-21T05:18:11;14.27;;;8.73;;
22270;SDS011;11304;53.520;10.104;2023-11-21T05:20:39;14.25;;;9.05;;
22270;SDS011;11304;53.520;10.104;2023-11-21T05:23:06;12.05;;;8.63;;
22270;SDS011;11304;53.520;10.104;2023-11-21T05:25:33;11.90;;;8.55;;
22270;SDS011;11304;53.520;10.104;2023-11-21T05:27:59;12.07;;;9.13;;
22270;SDS011;11304;53.520;10.104;2023-11-21T05:30:26;11.20;;;8.32;;
22270;SDS011;11304;53.520;10.104;2023-11-21T05:32:53;13.80;;;8.93;;
22270;SDS011;11304;53.520;10.104;2023-11-21T05:35:19;13.98;;;9.65;;
22270;SDS011;11304;53.520;10.104;2023-11-21T05:37:46;12.65;;;9.45;;
22270;SDS011;11304;53.520;10.104;2023-11-21T05:40:12;14.80;;;9.82;;
22270;SDS011;11304;53.520;10.104;2023-11-21T05:42:39;13.80;;;9.27;;
22270;SDS011;11304;53.520;10.104;2023-11-21T05:45:06;13.10;;;9.60;;
22270;SDS011;11304;53.520;10.104;2023-11-21T05:47:40;13.45;;;9.63;;
22270;SDS011;11304;53.520;10.104;2023-11-21T05:50:10;11.90;;;8.90;;
22270;SDS011;11304;53.520;10.104;2023-11-21T05:52:37;12.95;;;8.93;;
22270;SDS011;11304;53.520;10.104;2023-11-21T05:55:07;13.05;;;9.00;;
22270;SDS011;11304;53.520;10.104;2023-11-21T05:57:33;13.13;;;9.40;;
22270;SDS011;11304;53.520;10.104;2023-11-21T06:00:02;11.30;;;8.70;;
22270;SDS011;11304;53.520;10.104;2023-11-21T06:02:35;13.68;;;9.38;;
22270;SDS011;11304;53.520;10.104;2023-11-21T06:05:01;14.13;;;9.75;;
22270;SDS011;11304;53.520;10.104;2023-11-21T06:07:29;10.68;;;8.57;;
22270;SDS011;11304;53.520;10.104;2023-11-21T06:09:55;11.60;;;8.40;;
22270;SDS011;11304;53.520;10.104;2023-11-21T06:12:22;16.48;;;9.10;;
22270;SDS011;11304;53.520;10.104;2023-11-21T06:14:48;16.75;;;9.57;;
22270;SDS011;11304;53.520;10.104;2023-11-21T06:17:14;13.25;;;9.30;;
22270;SDS011;11304;53.520;10.104;2023-11-21T06:19:40;12.98;;;9.55;;
22270;SDS011;11304;53.520;10.104;2023-11-21T06:22:06;12.65;;;9.70;;
22270;SDS011;11304;53.520;10.104;2023-11-21T06:24:33;12.77;;;8.88;;
22270;SDS011;11304;53.520;10.104;2023-11-21T06:26:59;15.40;;;9.38;;
22270;SDS011;11304;53.520;10.104;2023-11-21T06:29:25;14.55;;;9.07;;
22270;SDS011;11304;53.520;10.104;2023-11-21T06:31:51;15.18;;;9.13;;
22270;SDS011;11304;53.520;10.104;2023-11-21T06:34:20;12.38;;;9.32;;
22270;SDS011;11304;53.520;10.104;2023-11-21T06:36:46;17.20;;;9.82;;
22270;SDS011;11304;53.520;10.104;2023-11-21T06:39:12;12.95;;;10.38;;
22270;SDS011;11304;53.520;10.104;2023-11-21T06:41:40;12.30;;;9.60;;
22270;SDS011;11304;53.520;10.104;2023-11-21T06:44:06;12.63;;;9.57;;
22270;SDS011;11304;53.520;10.104;2023-11-21T06:46:33;12.05;;;8.73;;
22270;SDS011;11304;53.520;10.104;2023-11-21T06:48:59;13.93;;;10.23;;
22270;SDS011;11304;53.520;10.104;2023-11-21T06:51:25;13.68;;;9.18;;
22270;SDS011;11304;53.520;10.104;2023-11-21T06:53:52;14.38;;;10.18;;
22270;SDS011;11304;53.520;10.104;2023-11-21T06:56:18;13.60;;;10.07;;
22270;SDS011;11304;53.520;10.104;2023-11-21T06:58:45;14.18;;;10.40;;
22270;SDS011;11304;53.520;10.104;2023-11-21T07:01:14;13.43;;;9.95;;
22270;SDS011;11304;53.520;10.104;2023-11-21T07:03:40;13.95;;;9.80;;
22270;SDS011;11304;53.520;10.104;2023-11-21T07:06:07;13.57;;;9.30;;
22270;SDS011;11304;53.520;10.104;2023-11-21T07:08:33;14.05;;;9.82;;
22270;SDS011;11304;53.520;10.104;2023-11-21T07:10:59;13.32;;;9.88;;
22270;SDS011;11304;53.520;10.104;2023-11-21T07:13:25;15.38;;;10.55;;
22270;SDS011;11304;53.520;10.104;2023-11-21T07:15:51;14.77;;;10.48;;
22270;SDS011;11304;53.520;10.104;2023-11-21T07:18:17;17.50;;;11.80;;
22270;SDS011;11304;53.520;10.104;2023-11-21T07:20:43;12.80;;;9.43;;
22270;SDS011;11304;53.520;10.104;2023-11-21T07:23:09;15.73;;;10.85;;
22270;SDS011;11304;53.520;10.104;2023-11-21T07:25:35;13.35;;;10.57;;
22270;SDS011;11304;53.520;10.104;2023-11-21T07:28:01;14.32;;;10.55;;
22270;SDS011;11304;53.520;10.104;2023-11-21T07:30:28;15.00;;;10.43;;
22270;SDS011;11304;53.520;10.104;2023-11-21T07:32:54;14.98;;;10.32;;
22270;SDS011;11304;53.520;10.104;2023-11-21T07:35:20;16.80;;;10.40;;
22270;SDS011;11304;53.520;10.104;2023-11-21T07:37:46;13.20;;;10.35;;
22270;SDS011;11304;53.520;10.104;2023-11-21T07:40:13;18.65;;;11.13;;
22270;SDS011;11304;53.520;10.104;2023-11-21T07:42:39;12.00;;;9.27;;
22270;SDS011;11304;53.520;10.104;2023-11-21T07:45:07;13.47;;;10.40;;
22270;SDS011;11304;53.520;10.104;2023-11-21T07:47:34;12.85;;;9.20;;
22270;SDS011;11304;53.520;10.104;2023-11-21T07:50:00;13.07;;;9.90;;
22270;SDS011;11304;53.520;10.104;2023-11-21T07:52:27;14.98;;;10.18;;
22270;SDS011;11304;53.520;10.104;2023-11-21T07:54:54;13.43;;;9.43;;
22270;SDS011;11304;53.520;10.104;2023-11-21T07:57:20;13.48;;;9.48;;
22270;SDS011;11304;53.520;10.104;2023-11-21T07:59:46;13.90;;;9.77;;
22270;SDS011;11304;53.520;10.104;2023-11-21T08:02:12;13.70;;;9.85;;
22270;SDS011;11304;53.520;10.104;2023-11-21T08:04:38;14.05;;;8.82;;
22270;SDS011;11304;53.520;10.104;2023-11-21T08:07:04;13.02;;;8.70;;
22270;SDS011;11304;53.520;10.104;2023-11-21T08:09:30;12.05;;;8.77;;
22270;SDS011;11304;53.520;10.104;2023-11-21T08:11:56;10.20;;;8.13;;
22270;SDS011;11304;53.520;10.104;2023-11-21T08:14:22;12.73;;;8.57;;
22270;SDS011;11304;53.520;10.104;2023-11-21T08:16:50;9.70;;;7.65;;
22270;SDS011;11304;53.520;10.104;2023-11-21T08:19:17;9.27;;;6.85;;
22270;SDS011;11304;53.520;10.104;2023-11-21T08:21:43;10.30;;;7.18;;
22270;SDS011;11304;53.520;10.104;2023-11-21T08:24:11;11.35;;;6.93;;
22270;SDS011;11304;53.520;10.104;2023-11-21T08:26:37;11.68;;;7.32;;
22270;SDS011;11304;53.520;10.104;2023-11-21T08:29:03;9.10;;;7.00;;
22270;SDS011;11304;53.520;10.104;2023-11-21T08:31:32;8.75;;;6.88;;
22270;SDS011;11304;53.520;10.104;2023-11-21T08:33:58;8.23;;;6.05;;
22270;SDS011;11304;53.520;10.104;2023-11-21T08:36:27;10.07;;;6.35;;
22270;SDS011;11304;53.520;10.104;2023-11-21T08:38:53;9.82;;;6.30;;
22270;SDS011;11304;53.520;10.104;2023-11-21T08:41:19;9.88;;;6.55;;
22270;SDS011;11304;53.520;10.104;2023-11-21T08:43:51;7.75;;;6.13;;
22270;SDS011;11304;53.520;10.104;2023-11-21T08:46:19;9.13;;;5.70;;
22270;SDS011;11304;53.520;10.104;2023-11-21T08:48:45;9.43;;;5.85;;
22270;SDS011;11304;53.520;10.104;2023-11-21T08:51:11;7.80;;;6.00;;
22270;SDS011;11304;53.520;10.104;2023-11-21T08:53:37;7.45;;;5.60;;
22270;SDS011;11304;53.520;10.104;2023-11-21T08:56:03;6.85;;;5.55;;
22270;SDS011;11304;53.520;10.104;2023-11-21T08:58:30;11.30;;;5.47;;
22270;SDS011;11304;53.520;10.104;2023-11-21T09:00:57;8.00;;;5.50;;
22270;SDS011;11304;53.520;10.104;2023-11-21T09:03:23;9.52;;;5.88;;
22270;SDS011;11304;53.520;10.104;2023-11-21T09:05:50;9.95;;;5.53;;
22270;SDS011;11304;53.520;10.104;2023-11-21T09:08:16;8.57;;;5.30;;
22270;SDS011;11304;53.520;10.104;2023-11-21T09:10:42;11.50;;;5.70;;
22270;SDS011;11304;53.520;10.104;2023-11-21T09:13:12;8.20;;;4.90;;
22270;SDS011;11304;53.520;10.104;2023-11-21T09:15:38;9.13;;;5.10;;
22270;SDS011;11304;53.520;10.104;2023-11-21T09:18:05;10.35;;;5.07;;
22270;SDS011;11304;53.520;10.104;2023-11-21T09:20:31;5.35;;;4.13;;
22270;SDS011;11304;53.520;10.104;2023-11-21T09:22:57;7.35;;;4.63;;
22270;SDS011;11304;53.520;10.104;2023-11-21T09:25:23;7.13;;;4.93;;
22270;SDS011;11304;53.520;10.104;2023-11-21T09:27:49;8.07;;;4.90;;
22270;SDS011;11304;53.520;10.104;2023-11-21T09:30:15;9.40;;;4.70;;
22270;SDS011;11304;53.520;10.104;2023-11-21T09:32:42;7.70;;;4.75;;
22270;SDS011;11304;53.520;10.104;2023-11-21T09:35:10;8.20;;;4.60;;
22270;SDS011;11304;53.520;10.104;2023-11-21T09:37:38;9.07;;;5.03;;
22270;SDS011;11304;53.520;10.104;2023-11-21T09:40:05;7.38;;;4.53;;
22270;SDS011;11304;53.520;10.104;2023-11-21T09:42:43;7.10;;;4.72;;
22270;SDS011;11304;53.520;10.104;2023-11-21T09:45:18;6.65;;;4.35;;
22270;SDS011;11304;53.520;10.104;2023-11-21T09:47:45;5.32;;;3.90;;
22270;SDS011;11304;53.520;10.104;2023-11-21T09:50:14;6.53;;;4.07;;
22270;SDS011;11304;53.520;10.104;2023-11-21T09:55:29;6.68;;;4.22;;
22270;SDS011;11304;53.520;10.104;2023-11-21T09:58:01;7.22;;;4.15;;
22270;SDS011;11304;53.520;10.104;2023-11-21T10:00:28;7.32;;;3.85;;
22270;SDS011;11304;53.520;10.104;2023-11-21T10:02:57;6.15;;;3.75;;
22270;SDS011;11304;53.520;10.104;2023-11-21T10:05:24;7.55;;;3.83;;
22270;SDS011;11304;53.520;10.104;2023-11-21T10:07:50;6.78;;;3.63;;
22270;SDS011;11304;53.520;10.104;2023-11-21T10:10:18;4.95;;;3.70;;
22270;SDS011;11304;53.520;10.104;2023-11-21T10:12:46;6.68;;;3.22;;
22270;SDS011;11304;53.520;10.104;2023-11-21T10:15:14;7.78;;;4.28;;
22270;SDS011;11304;53.520;10.104;2023-11-21T10:17:41;7.10;;;3.90;;
22270;SDS011;11304;53.520;10.104;2023-11-21T10:20:12;6.97;;;3.58;;
22270;SDS011;11304;53.520;10.104;2023-11-21T10:22:42;6.72;;;3.38;;
22270;SDS011;11304;53.520;10.104;2023-11-21T10:25:08;5.93;;;3.50;;
22270;SDS011;11304;53.520;10.104;2023-11-21T10:27:35;7.20;;;4.05;;
22270;SDS011;11304;53.520;10.104;2023-11-21T10:30:04;8.07;;;4.28;;
22270;SDS011;11304;53.520;10.104;2023-11-21T10:32:31;6.68;;;3.90;;
22270;SDS011;11304;53.520;10.104;2023-11-21T10:34:57;7.53;;;3.72;;
22270;SDS011;11304;53.520;10.104;2023-11-21T10:37:25;5.90;;;3.87;;
22270;SDS011;11304;53.520;10.104;2023-11-21T10:39:58;5.45;;;3.22;;
22270;SDS011;11304;53.520;10.104;2023-11-21T10:42:24;5.40;;;3.45;;
22270;SDS011;11304;53.520;10.104;2023-11-21T10:44:52;9.10;;;3.78;;
22270;SDS011;11304;53.520;10.104;2023-11-21T10:47:19;5.20;;;3.42;;
22270;SDS011;11304;53.520;10.104;2023-11-21T10:49:48;7.90;;;3.33;;
22270;SDS011;11304;53.520;10.104;2023-11-21T10:52:14;4.85;;;3.50;;
22270;SDS011;11304;53.520;10.104;2023-11-21T10:54:43;7.85;;;4.30;;
22270;SDS011;11304;53.520;10.104;2023-11-21T10:57:10;7.53;;;3.75;;
22270;SDS011;11304;53.520;10.104;2023-11-21T10:59:36;9.00;;;3.50;;
22270;SDS011;11304;53.520;10.104;2023-11-21T11:02:07;6.25;;;3.33;;
22270;SDS011;11304;53.520;10.104;2023-11-21T11:04:46;5.97;;;3.58;;
22270;SDS011;11304;53.520;10.104;2023-11-21T11:07:12;6.43;;;3.40;;
22270;SDS011;11304;53.520;10.104;2023-11-21T11:09:39;5.82;;;3.30;;
22270;SDS011;11304;53.520;10.104;2023-11-21T11:12:05;4.78;;;3.10;;
22270;SDS011;11304;53.520;10.104;2023-11-21T11:14:32;7.68;;;3.10;;
22270;SDS011;11304;53.520;10.104;2023-11-21T11:16:58;4.80;;;3.30;;
22270;SDS011;11304;53.520;10.104;2023-11-21T11:19:25;4.95;;;3.08;;
22270;SDS011;11304;53.520;10.104;2023-11-21T11:24:32;6.55;;;3.30;;
22270;SDS011;11304;53.520;10.104;2023-11-21T11:32:37;8.65;;;3.50;;
22270;SDS011;11304;53.520;10.104;2023-11-21T11:37:32;7.40;;;3.55;;
22270;SDS011;11304;53.520;10.104;2023-11-21T11:39:58;5.43;;;2.65;;
22270;SDS011;11304;53.520;10.104;2023-11-21T11:42:24;6.35;;;3.35;;
22270;SDS011;11304;53.520;10.104;2023-11-21T11:44:51;5.15;;;2.63;;
22270;SDS011;11304;53.520;10.104;2023-11-21T11:55:13;8.80;;;3.20;;
22270;SDS011;11304;53.520;10.104;2023-11-21T11:57:43;8.00;;;3.10;;
22270;SDS011;11304;53.520;10.104;2023-11-21T12:00:19;9.80;;;3.55;;
22270;SDS011;11304;53.520;10.104;2023-11-21T12:02:50;3.75;;;2.83;;
22270;SDS011;11304;53.520;10.104;2023-11-21T12:05:26;7.85;;;3.40;;
22270;SDS011;11304;53.520;10.104;2023-11-21T12:07:56;5.25;;;2.88;;
22270;SDS011;11304;53.520;10.104;2023-11-21T12:10:26;7.30;;;2.88;;
22270;SDS011;11304;53.520;10.104;2023-11-21T12:12:56;4.60;;;3.03;;
22270;SDS011;11304;53.520;10.104;2023-11-21T12:15:23;6.50;;;3.17;;
22270;SDS011;11304;53.520;10.104;2023-11-21T12:17:50;6.25;;;2.85;;
22270;SDS011;11304;53.520;10.104;2023-11-21T12:20:20;6.15;;;3.50;;
22270;SDS011;11304;53.520;10.104;2023-11-21T12:22:47;4.53;;;2.80;;
22270;SDS011;11304;53.520;10.104;2023-11-21T12:25:14;6.68;;;3.00;;
22270;SDS011;11304;53.520;10.104;2023-11-21T12:27:44;4.80;;;3.13;;
22270;SDS011;11304;53.520;10.104;2023-11-21T12:30:11;6.32;;;3.25;;
22270;SDS011;11304;53.520;10.104;2023-11-21T12:32:41;9.55;;;3.40;;
22270;SDS011;11304;53.520;10.104;2023-11-21T12:35:08;8.23;;;3.15;;
22270;SDS011;11304;53.520;10.104;2023-11-21T12:37:35;5.70;;;3.42;;
22270;SDS011;11304;53.520;10.104;2023-11-21T12:40:02;6.78;;;3.42;;
22270;SDS011;11304;53.520;10.104;2023-11-21T12:42:28;10.10;;;3.40;;
22270;SDS011;11304;53.520;10.104;2023-11-21T12:47:41;7.15;;;3.28;;
22270;SDS011;11304;53.520;10.104;2023-11-21T12:50:07;7.65;;;3.45;;
22270;SDS011;11304;53.520;10.104;2023-11-21T12:52:40;6.40;;;3.35;;
22270;SDS011;11304;53.520;10.104;2023-11-21T12:55:06;9.18;;;3.70;;
22270;SDS011;11304;53.520;10.104;2023-11-21T12:57:33;7.82;;;3.42;;
22270;SDS011;11304;53.520;10.104;2023-11-21T12:59:59;6.07;;;3.28;;
22270;SDS011;11304;53.520;10.104;2023-11-21T13:02:36;5.13;;;2.92;;
22270;SDS011;11304;53.520;10.104;2023-11-21T13:05:03;6.10;;;3.50;;
22270;SDS011;11304;53.520;10.104;2023-11-21T13:07:43;10.30;;;3.17;;
22270;SDS011;11304;53.520;10.104;2023-11-21T13:10:13;6.80;;;3.40;;
22270;SDS011;11304;53.520;10.104;2023-11-21T13:12:43;4.82;;;3.47;;
22270;SDS011;11304;53.520;10.104;2023-11-21T13:15:13;10.65;;;3.55;;
22270;SDS011;11304;53.520;10.104;2023-11-21T13:17:43;5.25;;;3.00;;
22270;SDS011;11304;53.520;10.104;2023-11-21T13:20:10;7.07;;;2.92;;
22270;SDS011;11304;53.520;10.104;2023-11-21T13:23:06;5.05;;;3.38;;
22270;SDS011;11304;53.520;10.104;2023-11-21T13:25:28;10.77;;;3.88;;
22270;SDS011;11304;53.520;10.104;2023-11-21T13:27:56;5.20;;;3.40;;
22270;SDS011;11304;53.520;10.104;2023-11-21T13:30:23;12.35;;;3.47;;
22270;SDS011;11304;53.520;10.104;2023-11-21T13:32:58;4.15;;;3.17;;
22270;SDS011;11304;53.520;10.104;2023-11-21T13:35:30;9.93;;;3.70;;
22270;SDS011;11304;53.520;10.104;2023-11-21T13:38:05;8.20;;;3.35;;
22270;SDS011;11304;53.520;10.104;2023-11-21T13:40:32;6.25;;;3.50;;
22270;SDS011;11304;53.520;10.104;2023-11-21T13:43:05;9.63;;;3.33;;
22270;SDS011;11304;53.520;10.104;2023-11-21T13:45:35;9.85;;;4.18;;
22270;SDS011;11304;53.520;10.104;2023-11-21T13:48:01;8.68;;;3.67;;
22270;SDS011;11304;53.520;10.104;2023-11-21T13:50:30;11.60;;;4.38;;
22270;SDS011;11304;53.520;10.104;2023-11-21T13:53:00;7.22;;;3.33;;
22270;SDS011;11304;53.520;10.104;2023-11-21T13:55:46;5.38;;;3.10;;
22270;SDS011;11304;53.520;10.104;2023-11-21T13:58:14;7.88;;;3.90;;
22270;SDS011;11304;53.520;10.104;2023-11-21T14:00:47;7.78;;;3.20;;
22270;SDS011;11304;53.520;10.104;2023-11-21T14:03:20;9.20;;;3.97;;
22270;SDS011;11304;53.520;10.104;2023-11-21T14:05:50;5.28;;;3.55;;
22270;SDS011;11304;53.520;10.104;2023-11-21T14:08:22;6.85;;;4.10;;
22270;SDS011;11304;53.520;10.104;2023-11-21T14:10:53;6.10;;;3.55;;
22270;SDS011;11304;53.520;10.104;2023-11-21T14:13:26;6.15;;;3.70;;
22270;SDS011;11304;53.520;10.104;2023-11-21T14:15:52;4.68;;;3.20;;
22270;SDS011;11304;53.520;10.104;2023-11-21T14:18:25;6.07;;;3.58;;
22270;SDS011;11304;53.520;10.104;2023-11-21T14:20:56;11.30;;;3.40;;
22270;SDS011;11304;53.520;10.104;2023-11-21T14:23:22;9.02;;;3.42;;
22270;SDS011;11304;53.520;10.104;2023-11-21T14:25:49;7.43;;;3.53;;
22270;SDS011;11304;53.520;10.104;2023-11-21T14:28:16;7.32;;;3.50;;
22270;SDS011;11304;53.520;10.104;2023-11-21T14:30:44;8.45;;;3.40;;
22270;SDS011;11304;53.520;10.104;2023-11-21T14:33:11;6.45;;;3.53;;
22270;SDS011;11304;53.520;10.104;2023-11-21T14:35:37;6.55;;;3.15;;
22270;SDS011;11304;53.520;10.104;2023-11-21T14:38:03;11.80;;;3.28;;
22270;SDS011;11304;53.520;10.104;2023-11-21T14:40:33;4.63;;;3.40;;
22270;SDS011;11304;53.520;10.104;2023-11-21T14:43:01;4.88;;;3.00;;
22270;SDS011;11304;53.520;10.104;2023-11-21T14:45:30;8.45;;;2.97;;
22270;SDS011;11304;53.520;10.104;2023-11-21T14:47:56;5.22;;;2.65;;